createdAt,value
2022-08-19T00:01:42.629Z,6.30
2022-08-19T00:04:13.257Z,5.70
2022-08-19T00:06:44.390Z,6.10
2022-08-19T00:09:14.830Z,6.77
2022-08-19T00:11:42.907Z,5.90
2022-08-19T00:14:13.785Z,6.70
2022-08-19T00:16:44.107Z,6.37
2022-08-19T00:19:12.288Z,6.17
2022-08-19T00:21:40.625Z,7.07
2022-08-19T00:24:09.316Z,6.77
2022-08-19T00:26:38.431Z,6.50
2022-08-19T00:29:08.140Z,7.20
2022-08-19T00:31:37.461Z,7.13
2022-08-19T00:34:05.370Z,7.07
2022-08-19T00:36:34.008Z,7.57
2022-08-19T00:39:02.519Z,7.47
2022-08-19T00:41:30.974Z,7.23
2022-08-19T00:44:00.716Z,7.30
2022-08-19T00:46:29.027Z,7.00
2022-08-19T00:48:59.371Z,7.60
2022-08-19T00:51:29.636Z,6.53
2022-08-19T00:53:59.752Z,7.27
2022-08-19T00:56:28.397Z,7.43
2022-08-19T00:58:58.459Z,7.53
2022-08-19T01:01:26.473Z,8.47
2022-08-19T01:03:57.485Z,7.10
2022-08-19T01:06:28.001Z,8.30
2022-08-19T01:08:56.269Z,8.60
2022-08-19T01:11:24.371Z,8.60
2022-08-19T01:13:54.290Z,9.37
2022-08-19T01:16:25.781Z,9.80
2022-08-19T01:18:53.911Z,9.40
2022-08-19T01:21:33.049Z,9.07
2022-08-19T01:24:02.277Z,10.07
2022-08-19T01:26:31.322Z,9.13
2022-08-19T01:29:02.022Z,9.43
2022-08-19T01:31:32.771Z,9.20
2022-08-19T01:34:02.556Z,8.87
2022-08-19T01:36:34.322Z,9.40
2022-08-19T01:39:10.969Z,9.37
2022-08-19T01:41:39.331Z,8.57
2022-08-19T01:44:17.842Z,8.20
2022-08-19T01:46:50.292Z,8.77
2022-08-19T01:49:20.992Z,8.37
2022-08-19T01:51:50.398Z,8.33
2022-08-19T01:54:23.107Z,8.00
2022-08-19T01:56:59.949Z,8.33
2022-08-19T01:59:27.874Z,8.30
2022-08-19T02:01:56.015Z,8.17
2022-08-19T02:04:24.348Z,7.50
2022-08-19T02:06:52.199Z,9.07
2022-08-19T02:09:21.710Z,8.00
2022-08-19T02:11:49.569Z,7.73
2022-08-19T02:14:17.390Z,8.33
2022-08-19T02:16:45.286Z,8.20
2022-08-19T02:19:13.123Z,8.37
2022-08-19T02:21:41.044Z,8.20
2022-08-19T02:24:09.064Z,7.90
2022-08-19T02:26:38.309Z,7.07
2022-08-19T02:29:06.389Z,7.70
2022-08-19T02:31:34.318Z,7.47
2022-08-19T02:34:02.159Z,6.83
2022-08-19T02:36:31.183Z,6.90
2022-08-19T02:38:58.194Z,6.67
2022-08-19T02:41:28.458Z,6.57
2022-08-19T02:44:18.473Z,6.63
2022-08-19T02:46:48.911Z,7.20
2022-08-19T02:49:19.638Z,6.93
2022-08-19T02:51:48.534Z,6.73
2022-08-19T02:54:17.012Z,7.30
2022-08-19T02:56:45.788Z,7.07
2022-08-19T02:59:14.992Z,6.83
2022-08-19T03:01:43.785Z,7.03
2022-08-19T03:04:14.331Z,8.10
2022-08-19T03:06:43.868Z,7.50
2022-08-19T03:09:12.584Z,5.93
2022-08-19T03:11:40.958Z,6.90
2022-08-19T03:14:10.492Z,7.07
2022-08-19T03:16:48.994Z,6.90
2022-08-19T03:19:18.967Z,6.70
2022-08-19T03:21:47.615Z,6.37
2022-08-19T03:24:16.214Z,5.60
2022-08-19T03:26:46.345Z,6.07
2022-08-19T03:29:14.980Z,6.27
2022-08-19T03:31:55.679Z,6.23
2022-08-19T03:34:27.314Z,6.27
2022-08-19T03:36:56.475Z,6.70
2022-08-19T03:39:24.861Z,6.10
2022-08-19T03:42:38.156Z,6.23
2022-08-19T03:44:45.891Z,6.30
2022-08-19T03:47:17.686Z,6.60
2022-08-19T03:49:45.790Z,6.73
2022-08-19T03:52:14.345Z,7.10
2022-08-19T03:54:42.243Z,6.13
2022-08-19T03:57:10.100Z,6.07
2022-08-19T03:59:40.099Z,5.93
2022-08-19T04:02:11.222Z,6.30
2022-08-19T04:04:44.125Z,6.10
2022-08-19T04:07:16.734Z,6.40
2022-08-19T04:09:44.652Z,7.43
2022-08-19T04:12:12.520Z,6.83
2022-08-19T04:14:40.454Z,6.23
2022-08-19T04:17:08.469Z,6.60
2022-08-19T04:19:38.188Z,6.10
2022-08-19T04:22:07.737Z,6.60
2022-08-19T04:24:36.777Z,6.77
2022-08-19T04:27:06.503Z,11.43
2022-08-19T04:29:35.238Z,8.50
2022-08-19T04:32:09.471Z,7.87
2022-08-19T04:35:02.423Z,6.30
2022-08-19T04:37:35.550Z,6.50
2022-08-19T04:40:24.289Z,6.57
2022-08-19T04:42:52.406Z,6.63
2022-08-19T04:45:22.890Z,7.23
2022-08-19T04:47:58.450Z,7.33
2022-08-19T04:50:43.692Z,7.17
2022-08-19T04:53:13.350Z,6.70
2022-08-19T04:55:43.082Z,6.70
2022-08-19T04:58:11.280Z,6.90
2022-08-19T05:00:41.357Z,6.43
2022-08-19T05:03:09.531Z,6.60
2022-08-19T05:05:44.996Z,6.80
2022-08-19T05:08:19.666Z,6.73
2022-08-19T05:10:59.635Z,6.23
2022-08-19T05:13:27.910Z,6.57
2022-08-19T05:15:57.600Z,6.80
2022-08-19T05:18:43.440Z,6.70
2022-08-19T05:21:30.736Z,6.53
2022-08-19T05:24:00.348Z,6.23
2022-08-19T05:26:28.626Z,6.60
2022-08-19T05:28:57.204Z,6.13
2022-08-19T05:31:25.056Z,5.83
2022-08-19T05:33:53.027Z,6.90
2022-08-19T05:36:21.005Z,6.80
2022-08-19T05:38:50.953Z,7.10
2022-08-19T05:41:20.296Z,6.90
2022-08-19T05:43:48.398Z,6.60
2022-08-19T05:46:27.829Z,7.10
2022-08-19T05:48:57.532Z,10.00
2022-08-19T05:51:28.992Z,7.80
2022-08-19T05:53:57.292Z,7.53
2022-08-19T05:56:27.010Z,7.00
2022-08-19T05:58:55.313Z,7.50
2022-08-19T06:01:28.515Z,7.80
2022-08-19T06:03:56.405Z,8.03
2022-08-19T06:06:24.627Z,8.10
2022-08-19T06:08:52.486Z,8.30
2022-08-19T06:11:22.675Z,7.90
2022-08-19T06:13:59.552Z,7.97
2022-08-19T06:16:28.771Z,8.37
2022-08-19T06:18:58.563Z,9.00
2022-08-19T06:21:29.326Z,8.07
2022-08-19T06:23:57.965Z,8.50
2022-08-19T06:26:27.386Z,9.43
2022-08-19T06:28:57.080Z,8.53
2022-08-19T06:31:28.049Z,8.60
2022-08-19T06:33:56.087Z,8.47
2022-08-19T06:36:28.040Z,9.07
2022-08-19T06:38:55.965Z,9.33
2022-08-19T06:41:23.896Z,9.63
2022-08-19T06:43:53.994Z,10.13
2022-08-19T06:46:23.668Z,10.03
2022-08-19T06:48:54.239Z,9.50
2022-08-19T06:51:24.865Z,10.77
2022-08-19T06:53:54.587Z,10.73
2022-08-19T06:56:31.874Z,10.23
2022-08-19T06:59:00.007Z,11.13
2022-08-19T07:01:29.321Z,11.87
2022-08-19T07:03:57.512Z,12.30
2022-08-19T07:06:43.892Z,11.50
2022-08-19T07:09:14.428Z,11.57
2022-08-19T07:11:47.889Z,11.33
2022-08-19T07:14:19.001Z,12.67
2022-08-19T07:16:50.851Z,12.20
2022-08-19T07:19:19.988Z,12.73
2022-08-19T07:21:49.325Z,13.07
2022-08-19T07:24:19.339Z,11.63
2022-08-19T07:26:51.896Z,12.90
2022-08-19T07:29:24.178Z,14.43
2022-08-19T07:31:57.506Z,12.37
2022-08-19T07:34:29.283Z,14.53
2022-08-19T07:36:58.446Z,14.03
2022-08-19T07:39:29.643Z,13.53
2022-08-19T07:41:59.307Z,16.20
2022-08-19T07:44:27.596Z,17.60
2022-08-19T07:46:59.837Z,17.97
2022-08-19T07:49:27.869Z,20.87
2022-08-19T07:51:59.730Z,19.00
2022-08-19T07:54:29.160Z,17.40
2022-08-19T07:56:57.799Z,17.80
2022-08-19T07:59:26.606Z,17.63
2022-08-19T08:01:56.532Z,19.07
2022-08-19T08:04:41.976Z,18.27
2022-08-19T08:07:31.629Z,19.10
2022-08-19T08:10:00.803Z,18.77
2022-08-19T08:12:35.273Z,19.20
2022-08-19T08:15:08.837Z,21.27
2022-08-19T08:17:48.540Z,21.60
2022-08-19T08:20:18.697Z,20.70
2022-08-19T08:23:05.851Z,20.43
2022-08-19T08:25:34.320Z,21.47
2022-08-19T08:28:04.415Z,21.57
2022-08-19T08:30:33.809Z,21.07
2022-08-19T08:33:03.697Z,21.20
2022-08-19T08:35:31.667Z,21.57
2022-08-19T08:38:00.101Z,19.67
2022-08-19T08:40:31.773Z,21.13
2022-08-19T08:43:10.982Z,19.63
2022-08-19T08:45:46.987Z,20.80
2022-08-19T08:48:41.910Z,21.03
2022-08-19T08:51:13.672Z,22.23
2022-08-19T08:53:51.256Z,20.33
2022-08-19T08:56:24.316Z,21.47
2022-08-19T08:59:00.704Z,20.53
2022-08-19T09:01:29.206Z,21.57
2022-08-19T09:04:02.750Z,21.53
2022-08-19T09:06:48.332Z,18.10
2022-08-19T09:09:20.840Z,20.93
2022-08-19T09:12:03.161Z,19.17
2022-08-19T09:14:51.225Z,19.43
2022-08-19T09:17:31.612Z,18.50
2022-08-19T09:20:09.046Z,20.07
2022-08-19T09:22:38.268Z,20.87
2022-08-19T09:25:08.831Z,20.50
2022-08-19T09:27:43.107Z,21.40
2022-08-19T09:30:15.970Z,20.40
2022-08-19T09:32:44.369Z,19.47
2022-08-19T09:35:15.362Z,20.87
2022-08-19T09:37:44.355Z,25.20
2022-08-19T09:40:15.810Z,21.90
2022-08-19T09:42:49.943Z,23.90
2022-08-19T09:45:21.423Z,23.03
2022-08-19T09:47:50.461Z,23.10
2022-08-19T09:50:20.132Z,20.20
2022-08-19T09:52:55.394Z,22.13
2022-08-19T09:55:31.274Z,21.70
2022-08-19T09:58:01.645Z,21.63
2022-08-19T10:00:31.198Z,21.93
2022-08-19T10:02:59.228Z,22.10
2022-08-19T10:05:48.490Z,20.83
2022-08-19T10:08:20.632Z,22.13
2022-08-19T10:10:49.548Z,21.87
2022-08-19T10:13:26.992Z,20.57
2022-08-19T10:15:56.106Z,20.67
2022-08-19T10:18:25.120Z,20.63
2022-08-19T10:21:03.515Z,20.30
2022-08-19T10:23:33.569Z,21.40
2022-08-19T10:26:02.261Z,20.33
2022-08-19T10:28:30.178Z,18.63
2022-08-19T10:30:58.377Z,18.00
2022-08-19T10:33:39.237Z,17.83
2022-08-19T10:36:18.546Z,15.83
2022-08-19T10:38:52.362Z,15.00
2022-08-19T10:41:26.360Z,11.27
2022-08-19T10:43:56.464Z,10.60
2022-08-19T10:46:33.443Z,9.83
2022-08-19T10:49:02.583Z,10.37
2022-08-19T10:51:50.206Z,10.50
2022-08-19T10:54:32.166Z,9.30
2022-08-19T10:57:00.607Z,8.03
2022-08-19T10:59:35.846Z,7.70
2022-08-19T11:02:05.934Z,8.10
2022-08-19T11:04:34.235Z,7.97
2022-08-19T11:07:06.233Z,7.67
2022-08-19T11:09:40.869Z,7.77
2022-08-19T11:12:10.525Z,7.70
2022-08-19T11:14:39.584Z,7.50
2022-08-19T11:17:07.909Z,7.53
2022-08-19T11:19:36.528Z,11.60
2022-08-19T11:22:06.038Z,13.13
2022-08-19T11:24:37.695Z,11.80
2022-08-19T11:27:10.172Z,10.57
2022-08-19T11:29:41.265Z,9.67
2022-08-19T11:32:12.157Z,9.70
2022-08-19T11:34:40.336Z,7.67
2022-08-19T11:37:09.945Z,7.53
2022-08-19T11:39:41.194Z,6.50
2022-08-19T11:42:23.739Z,6.83
2022-08-19T11:44:53.077Z,6.80
2022-08-19T11:47:22.008Z,6.10
2022-08-19T11:49:49.935Z,6.67
2022-08-19T11:52:19.244Z,5.43
2022-08-19T11:54:47.237Z,5.77
2022-08-19T11:57:20.880Z,5.80
2022-08-19T11:59:53.573Z,5.47
2022-08-19T12:02:22.640Z,4.60
2022-08-19T12:04:51.020Z,3.20
2022-08-19T12:07:20.536Z,3.23
2022-08-19T12:09:48.829Z,3.53
2022-08-19T12:12:17.130Z,3.07
2022-08-19T12:14:45.434Z,2.33
2022-08-19T12:17:14.365Z,2.10
2022-08-19T12:19:42.262Z,1.90
2022-08-19T12:22:10.159Z,2.37
2022-08-19T12:24:39.504Z,2.10
2022-08-19T12:27:08.930Z,2.10
2022-08-19T12:29:41.098Z,1.90
2022-08-19T12:32:10.357Z,2.50
2022-08-19T12:34:40.457Z,1.77
2022-08-19T12:37:09.181Z,1.70
2022-08-19T12:39:41.701Z,1.70
2022-08-19T12:42:10.041Z,1.63
2022-08-19T12:44:40.655Z,1.60
2022-08-19T12:47:12.530Z,1.80
2022-08-19T12:49:53.791Z,1.50
2022-08-19T12:52:24.612Z,1.90
2022-08-19T12:54:55.254Z,1.80
2022-08-19T12:57:31.617Z,2.00
2022-08-19T13:00:05.823Z,2.20
2022-08-19T13:02:38.795Z,1.50
2022-08-19T13:05:09.629Z,1.70
2022-08-19T13:07:39.402Z,2.97
2022-08-19T13:10:12.074Z,1.70
2022-08-19T13:12:40.117Z,2.37
2022-08-19T13:15:11.300Z,2.00
2022-08-19T13:17:39.834Z,2.00
2022-08-19T13:20:09.710Z,2.00
2022-08-19T13:22:38.230Z,2.20
2022-08-19T13:25:09.017Z,2.00
2022-08-19T13:27:37.062Z,1.83
2022-08-19T13:30:24.275Z,2.33
2022-08-19T13:33:09.476Z,2.20
2022-08-19T13:35:37.908Z,2.03
2022-08-19T13:38:06.410Z,2.47
2022-08-19T13:40:42.011Z,2.20
2022-08-19T13:43:22.648Z,2.47
2022-08-19T13:45:56.774Z,2.20
2022-08-19T13:48:27.275Z,2.47
2022-08-19T13:50:56.008Z,3.10
2022-08-19T13:53:24.505Z,2.93
2022-08-19T13:55:54.631Z,3.03
2022-08-19T13:58:23.226Z,3.10
2022-08-19T14:00:51.384Z,2.73
2022-08-19T14:03:19.464Z,3.47
2022-08-19T14:05:48.029Z,3.37
2022-08-19T14:08:15.938Z,3.20
2022-08-19T14:10:45.367Z,3.23
2022-08-19T14:13:16.936Z,2.80
2022-08-19T14:15:45.619Z,3.10
2022-08-19T14:18:13.918Z,3.20
2022-08-19T14:20:42.040Z,3.10
2022-08-19T14:23:09.994Z,2.77
2022-08-19T14:25:38.496Z,3.60
2022-08-19T14:28:08.561Z,2.63
2022-08-19T14:30:39.296Z,2.30
2022-08-19T14:33:09.424Z,2.40
2022-08-19T14:35:37.752Z,3.33
2022-08-19T14:38:08.040Z,2.27
2022-08-19T14:40:36.008Z,2.43
2022-08-19T14:43:06.502Z,2.20
2022-08-19T14:45:37.726Z,2.20
2022-08-19T14:48:05.785Z,2.47
2022-08-19T14:50:34.749Z,1.90
2022-08-19T14:53:09.033Z,2.17
2022-08-19T14:55:43.447Z,2.20
2022-08-19T14:58:29.754Z,2.47
2022-08-19T15:01:01.051Z,2.33
2022-08-19T15:03:29.622Z,2.50
2022-08-19T15:05:58.392Z,2.30
2022-08-19T15:08:26.993Z,2.10
2022-08-19T15:10:55.344Z,2.63
2022-08-19T15:13:23.692Z,2.83
2022-08-19T15:15:52.628Z,2.70
2022-08-19T15:18:22.723Z,3.60
2022-08-19T15:20:51.870Z,2.87
2022-08-19T15:23:21.767Z,2.67
2022-08-19T15:25:53.083Z,2.70
2022-08-19T15:28:21.081Z,3.00
2022-08-19T15:30:48.969Z,2.60
2022-08-19T15:33:18.423Z,3.27
2022-08-19T15:35:50.882Z,4.00
2022-08-19T15:38:19.879Z,3.97
2022-08-19T15:40:48.731Z,4.20
2022-08-19T15:43:17.118Z,4.10
2022-08-19T15:45:49.418Z,4.50
2022-08-19T15:48:17.592Z,4.23
2022-08-19T15:50:46.854Z,4.27
2022-08-19T15:53:14.765Z,4.60
2022-08-19T15:55:45.861Z,5.00
2022-08-19T15:58:33.185Z,4.47
2022-08-19T16:01:21.609Z,4.63
2022-08-19T16:04:13.821Z,4.43
2022-08-19T16:06:46.908Z,4.70
2022-08-19T16:09:16.607Z,5.03
2022-08-19T16:11:46.202Z,4.37
2022-08-19T16:14:15.462Z,4.00
2022-08-19T16:16:47.079Z,3.87
2022-08-19T16:19:17.057Z,3.40
2022-08-19T16:21:47.811Z,3.90
2022-08-19T16:24:18.090Z,3.60
2022-08-19T16:26:46.581Z,3.57
2022-08-19T16:29:14.900Z,4.07
2022-08-19T16:31:56.840Z,3.53
2022-08-19T16:34:25.918Z,3.30
2022-08-19T16:36:56.041Z,3.67
2022-08-19T16:39:23.985Z,3.53
2022-08-19T16:41:52.656Z,3.90
2022-08-19T16:44:20.923Z,3.50
2022-08-19T16:46:58.925Z,3.90
2022-08-19T16:49:53.946Z,3.97
2022-08-19T16:52:16.752Z,3.97
2022-08-19T16:54:44.921Z,3.97
2022-08-19T16:57:13.789Z,4.10
2022-08-19T16:59:48.121Z,4.00
2022-08-19T17:02:17.730Z,4.20
2022-08-19T17:04:57.115Z,3.87
2022-08-19T17:07:28.286Z,3.77
2022-08-19T17:09:56.642Z,3.93
2022-08-19T17:12:31.580Z,3.57
2022-08-19T17:15:02.137Z,3.70
2022-08-19T17:17:31.153Z,3.27
2022-08-19T17:20:00.241Z,3.10
2022-08-19T17:22:29.916Z,4.80
2022-08-19T17:24:58.635Z,3.70
2022-08-19T17:27:32.087Z,3.70
2022-08-19T17:30:02.231Z,3.60
2022-08-19T17:32:32.449Z,3.70
2022-08-19T17:35:00.531Z,3.90
2022-08-19T17:37:29.737Z,4.10
2022-08-19T17:39:58.062Z,3.70
2022-08-19T17:42:26.324Z,3.80
2022-08-19T17:44:54.237Z,3.87
2022-08-19T17:47:22.108Z,3.97
2022-08-19T17:49:50.010Z,4.50
2022-08-19T17:52:18.461Z,4.00
2022-08-19T17:54:47.711Z,5.97
2022-08-19T17:57:15.614Z,4.57
2022-08-19T17:59:45.584Z,4.13
2022-08-19T18:02:13.793Z,4.77
2022-08-19T18:04:45.523Z,5.83
2022-08-19T18:07:21.314Z,6.60
2022-08-19T18:09:52.656Z,7.10
2022-08-19T18:12:24.911Z,7.50
2022-08-19T18:14:53.362Z,9.47
2022-08-19T18:17:23.342Z,8.67
2022-08-19T18:19:51.573Z,9.93
2022-08-19T18:22:26.782Z,8.50
2022-08-19T18:24:57.417Z,9.07
2022-08-19T18:27:26.099Z,8.57
2022-08-19T18:29:58.920Z,9.50
2022-08-19T18:32:27.793Z,8.97
2022-08-19T18:34:56.127Z,9.10
2022-08-19T18:37:25.757Z,8.40
2022-08-19T18:40:11.940Z,8.43
2022-08-19T18:43:02.274Z,8.17
2022-08-19T18:45:48.232Z,8.70
2022-08-19T18:48:33.857Z,9.80
2022-08-19T18:51:03.307Z,9.00
2022-08-19T18:53:34.635Z,11.17
2022-08-19T18:56:03.738Z,11.83
2022-08-19T18:58:35.085Z,12.27
2022-08-19T19:01:12.999Z,14.03
2022-08-19T19:03:45.621Z,12.47
2022-08-19T19:06:15.202Z,12.83
2022-08-19T19:08:43.452Z,14.17
2022-08-19T19:11:11.391Z,12.93
2022-08-19T19:13:41.080Z,14.53
2022-08-19T19:16:11.498Z,13.27
2022-08-19T19:18:39.764Z,16.37
2022-08-19T19:21:08.566Z,13.90
2022-08-19T19:23:40.777Z,12.83
2022-08-19T19:26:10.546Z,12.33
2022-08-19T19:28:45.490Z,13.30
2022-08-19T19:31:15.497Z,12.37
2022-08-19T19:33:44.332Z,12.47
2022-08-19T19:36:13.318Z,11.53
2022-08-19T19:38:48.641Z,11.27
2022-08-19T19:41:20.320Z,10.60
2022-08-19T19:43:59.880Z,11.50
2022-08-19T19:46:33.603Z,11.03
2022-08-19T19:49:01.943Z,11.40
2022-08-19T19:51:30.765Z,10.23
2022-08-19T19:54:06.226Z,9.93
2022-08-19T19:56:34.580Z,10.77
2022-08-19T19:59:04.343Z,11.03
2022-08-19T20:01:32.722Z,10.70
2022-08-19T20:04:01.597Z,11.53
2022-08-19T20:06:30.325Z,10.83
2022-08-19T20:09:10.798Z,9.93
2022-08-19T20:11:42.330Z,10.20
2022-08-19T20:14:14.588Z,10.17
2022-08-19T20:16:45.896Z,9.77
2022-08-19T20:19:16.896Z,11.77
2022-08-19T20:21:50.735Z,9.93
2022-08-19T20:24:22.448Z,9.93
2022-08-19T20:26:51.552Z,9.93
2022-08-19T20:29:39.367Z,9.93
2022-08-19T20:32:10.210Z,8.97
2022-08-19T20:34:38.390Z,8.83
2022-08-19T20:37:07.703Z,8.50
2022-08-19T20:39:35.633Z,9.60
2022-08-19T20:42:03.518Z,9.00
2022-08-19T20:44:32.746Z,9.30
2022-08-19T20:47:03.589Z,9.40
2022-08-19T20:49:32.231Z,9.90
2022-08-19T20:52:00.342Z,10.03
2022-08-19T20:54:28.732Z,9.60
2022-08-19T20:56:56.774Z,10.30
2022-08-19T20:59:25.795Z,10.43
2022-08-19T21:01:55.038Z,9.90
2022-08-19T21:04:23.396Z,10.47
2022-08-19T21:06:51.643Z,10.67
2022-08-19T21:09:20.011Z,10.23
2022-08-19T21:11:47.924Z,10.50
2022-08-19T21:14:16.191Z,10.10
2022-08-19T21:16:44.038Z,10.00
2022-08-19T21:19:13.293Z,10.40
2022-08-19T21:21:41.183Z,10.70
2022-08-19T21:24:09.365Z,10.20
2022-08-19T21:26:37.240Z,10.63
2022-08-19T21:29:05.128Z,10.10
2022-08-19T21:31:33.021Z,11.43
2022-08-19T21:34:01.352Z,10.73
2022-08-19T21:36:30.650Z,11.17
2022-08-19T21:38:58.624Z,10.23
2022-08-19T21:41:26.507Z,11.67
2022-08-19T21:43:54.506Z,11.03
2022-08-19T21:46:22.684Z,10.60
2022-08-19T21:48:50.576Z,10.77
2022-08-19T21:51:18.544Z,10.73
2022-08-19T21:53:50.328Z,11.37
2022-08-19T21:56:20.947Z,11.70
2022-08-19T21:58:48.874Z,11.73
2022-08-19T22:01:17.054Z,9.67
2022-08-19T22:03:44.999Z,10.93
2022-08-19T22:06:12.891Z,10.07
2022-08-19T22:08:42.140Z,10.73
2022-08-19T22:11:12.953Z,11.53
2022-08-19T22:13:41.076Z,10.07
2022-08-19T22:16:09.716Z,12.17
2022-08-19T22:18:37.625Z,11.73
2022-08-19T22:21:11.216Z,12.93
2022-08-19T22:23:39.741Z,12.47
2022-08-19T22:26:07.696Z,12.90
2022-08-19T22:28:36.894Z,11.83
2022-08-19T22:31:05.918Z,12.00
2022-08-19T22:33:34.639Z,12.53
2022-08-19T22:36:04.474Z,11.30
2022-08-19T22:38:32.556Z,11.33
2022-08-19T22:41:00.424Z,11.77
2022-08-19T22:43:31.843Z,11.17
2022-08-19T22:46:02.199Z,11.13
2022-08-19T22:48:32.649Z,9.90
2022-08-19T22:51:18.495Z,9.37
2022-08-19T22:53:48.277Z,8.50
2022-08-19T22:56:18.199Z,8.40
2022-08-19T22:58:49.945Z,8.60
2022-08-19T23:01:29.961Z,7.73
2022-08-19T23:03:58.925Z,7.67
2022-08-19T23:06:33.467Z,8.37
2022-08-19T23:09:02.436Z,9.00
2022-08-19T23:11:35.703Z,9.17
2022-08-19T23:14:06.967Z,9.07
2022-08-19T23:16:38.019Z,8.73
2022-08-19T23:19:07.503Z,9.60
2022-08-19T23:21:36.270Z,10.10
2022-08-19T23:24:05.123Z,9.97
2022-08-19T23:26:35.896Z,8.93
2022-08-19T23:29:23.128Z,9.93
2022-08-19T23:31:52.490Z,10.00
2022-08-19T23:34:20.395Z,10.30
2022-08-19T23:36:48.502Z,10.73
2022-08-19T23:39:16.474Z,10.27
2022-08-19T23:41:44.294Z,10.60
2022-08-19T23:44:14.556Z,10.30
2022-08-19T23:46:55.211Z,10.53
2022-08-19T23:49:26.289Z,11.70
2022-08-19T23:51:56.123Z,11.60
2022-08-19T23:54:27.466Z,11.43
2022-08-19T23:57:14.426Z,11.60
2022-08-19T23:59:45.190Z,10.33
